Peter R. Cresswell — VCBZ — position and weather

sailwx.info

Track history (hours):
 
Tides and Currents Weather Stations Pressure Air Temp Water Temp Dewpoint Dewpoint Depression Visibility Wind Speed Wind Dir Waves Ship Positions

Peter R. Cresswell

ex Algowest

Last reported at 2015-May-25 17:33 UTC. Time now 2015-May-26 05:41 UTC.
Position N 42°36' W 079°41'.

Length 219.2 m; beam 23.2 m; draft 8.7 m.

Type: Ship. MMSI: 316001697.

Date/timePositionNaut miles runAvg speedWind from/ knotsBaromVisibWave heightAir tempDewpointWater temp
2015-May-25 17:33N 42°36' W 079°41'251 6.6
2015-May-24 03:22N 45°43' W 083°35'1011.9
2015-May-24 02:33N 45°50' W 083°45'1510.1
2015-May-24 01:07N 46°02' W 083°56'9 8.3
2015-May-24 00:04N 46°09' W 084°03'316 9.4
2015-May-22 14:33N 46°52' W 091°38'1111.6
2015-May-22 13:33N 46°46' W 091°52'8 7.3
2015-May-22 12:31N 46°42' W 092°01'0 0.0
2015-May-22 11:33N 46°42' W 092°01'0 0.0
2015-May-22 10:33N 46°42' W 092°01'0 0.0
2015-May-22 09:33N 46°42' W 092°01'0 0.0
2015-May-22 08:33N 46°42' W 092°01'0 0.0
2015-May-22 07:33N 46°42' W 092°01'0 0.0
2015-May-22 06:33N 46°42' W 092°01'0 0.0
2015-May-22 05:33N 46°42' W 092°01'0 0.0
2015-May-22 04:33N 46°42' W 092°01'0 0.0
2015-May-22 03:33N 46°42' W 092°01'0 0.0
2015-May-22 02:33N 46°42' W 092°01'0 0.0
2015-May-22 01:33N 46°42' W 092°01'0 0.0
2015-May-22 00:33N 46°42' W 092°01'0 0.0
2015-May-21 23:34N 46°42' W 092°01'0 0.0
2015-May-21 22:33N 46°42' W 092°01'0 0.0
2015-May-21 21:33N 46°42' W 092°01'0 0.0
2015-May-21 20:33N 46°42' W 092°01'0 0.0
2015-May-21 18:05N 46°42' W 092°01'0 0.0
2015-May-21 17:33N 46°42' W 092°01'0 0.0
2015-May-21 16:32N 46°42' W 092°01'0 0.0
2015-May-21 15:33N 46°42' W 092°01'0 0.0
2015-May-21 14:33N 46°42' W 092°01'0 0.0
2015-May-21 13:33N 46°42' W 092°01'0 0.0
2015-May-21 12:33N 46°42' W 092°01'0 0.0
2015-May-21 11:33N 46°42' W 092°01'0 0.5
2015-May-21 10:33N 46°42' W 092°01'2 2.4
2015-May-21 09:33N 46°43' W 091°58'0 0.2
2015-May-21 08:34N 46°43' W 091°58'0 0.0
2015-May-21 07:34N 46°43' W 091°58'0 0.0
2015-May-21 06:34N 46°43' W 091°58'0 0.0
2015-May-21 05:33N 46°43' W 091°58'0 0.0
2015-May-21 04:33N 46°43' W 091°58'0 0.0
2015-May-21 03:33N 46°43' W 091°58'0 0.0
2015-May-21 02:33N 46°43' W 091°58'0 0.0
2015-May-21 01:33N 46°43' W 091°58'0 0.1
2015-May-21 00:33N 46°43' W 091°58'0 0.0
2015-May-20 23:33N 46°43' W 091°58'0 0.0
2015-May-20 22:33N 46°43' W 091°58'2 2.3
2015-May-20 21:33N 46°44' W 091°56'1212.1
2015-May-20 20:33N 46°50' W 091°40'331 9.7
2015-May-19 10:16N 45°51' W 083°48'  
Track history (hours):
 
Tides and Currents Weather Stations Pressure Air Temp Water Temp Dewpoint Dewpoint Depression Visibility Wind Speed Wind Dir Waves Ship Positions

Peter R. Cresswell

ex Algowest

Last reported at 2015-May-25 17:33 UTC. Time now 2015-May-26 05:41 UTC.
Position N 42°36' W 079°41'.

Length 219.2 m; beam 23.2 m; draft 8.7 m.

Type: Ship. MMSI: 316001697.

Date/timePositionNaut miles runAvg speedWind from/ knotsBaromVisibWave heightAir tempDewpointWater temp
2015-May-25 17:33N 42°36' W 079°41'251 6.6
2015-May-24 03:22N 45°43' W 083°35'1011.9
2015-May-24 02:33N 45°50' W 083°45'1510.1
2015-May-24 01:07N 46°02' W 083°56'9 8.3
2015-May-24 00:04N 46°09' W 084°03'316 9.4
2015-May-22 14:33N 46°52' W 091°38'1111.6
2015-May-22 13:33N 46°46' W 091°52'8 7.3
2015-May-22 12:31N 46°42' W 092°01'0 0.0
2015-May-22 11:33N 46°42' W 092°01'0 0.0
2015-May-22 10:33N 46°42' W 092°01'0 0.0
2015-May-22 09:33N 46°42' W 092°01'0 0.0
2015-May-22 08:33N 46°42' W 092°01'0 0.0
2015-May-22 07:33N 46°42' W 092°01'0 0.0
2015-May-22 06:33N 46°42' W 092°01'0 0.0
2015-May-22 05:33N 46°42' W 092°01'0 0.0
2015-May-22 04:33N 46°42' W 092°01'0 0.0
2015-May-22 03:33N 46°42' W 092°01'0 0.0
2015-May-22 02:33N 46°42' W 092°01'0 0.0
2015-May-22 01:33N 46°42' W 092°01'0 0.0
2015-May-22 00:33N 46°42' W 092°01'0 0.0
2015-May-21 23:34N 46°42' W 092°01'0 0.0
2015-May-21 22:33N 46°42' W 092°01'0 0.0
2015-May-21 21:33N 46°42' W 092°01'0 0.0
2015-May-21 20:33N 46°42' W 092°01'0 0.0
2015-May-21 18:05N 46°42' W 092°01'0 0.0
2015-May-21 17:33N 46°42' W 092°01'0 0.0
2015-May-21 16:32N 46°42' W 092°01'0 0.0
2015-May-21 15:33N 46°42' W 092°01'0 0.0
2015-May-21 14:33N 46°42' W 092°01'0 0.0
2015-May-21 13:33N 46°42' W 092°01'0 0.0
2015-May-21 12:33N 46°42' W 092°01'0 0.0
2015-May-21 11:33N 46°42' W 092°01'0 0.5
2015-May-21 10:33N 46°42' W 092°01'2 2.4
2015-May-21 09:33N 46°43' W 091°58'0 0.2
2015-May-21 08:34N 46°43' W 091°58'0 0.0
2015-May-21 07:34N 46°43' W 091°58'0 0.0
2015-May-21 06:34N 46°43' W 091°58'0 0.0
2015-May-21 05:33N 46°43' W 091°58'0 0.0
2015-May-21 04:33N 46°43' W 091°58'0 0.0
2015-May-21 03:33N 46°43' W 091°58'0 0.0
2015-May-21 02:33N 46°43' W 091°58'0 0.0
2015-May-21 01:33N 46°43' W 091°58'0 0.1
2015-May-21 00:33N 46°43' W 091°58'0 0.0
2015-May-20 23:33N 46°43' W 091°58'0 0.0
2015-May-20 22:33N 46°43' W 091°58'2 2.3
2015-May-20 21:33N 46°44' W 091°56'1212.1
2015-May-20 20:33N 46°50' W 091°40'331 9.7
2015-May-19 10:16N 45°51' W 083°48'  

Dump ship's entire track history